createdAt,value
2019-02-06T00:01:12.965Z,8.93
2019-02-06T00:03:42.677Z,8.65
2019-02-06T00:06:15.727Z,7.85
2019-02-06T00:08:47.221Z,9.08
2019-02-06T00:11:19.481Z,8.60
2019-02-06T00:13:48.743Z,8.65
2019-02-06T00:16:17.759Z,8.23
2019-02-06T00:18:46.995Z,6.85
2019-02-06T00:21:22.588Z,7.85
2019-02-06T00:23:51.745Z,8.13
2019-02-06T00:26:32.318Z,8.15
2019-02-06T00:29:01.324Z,9.10
2019-02-06T00:31:30.524Z,7.90
2019-02-06T00:33:59.646Z,7.78
2019-02-06T00:36:28.579Z,9.15
2019-02-06T00:38:57.550Z,7.33
2019-02-06T00:41:26.745Z,8.13
2019-02-06T00:43:55.929Z,7.05
2019-02-06T00:46:24.971Z,7.25
2019-02-06T00:48:54.021Z,7.70
2019-02-06T00:51:23.105Z,7.62
2019-02-06T00:53:52.157Z,8.60
2019-02-06T00:56:21.382Z,7.92
2019-02-06T00:58:50.597Z,9.08
2019-02-06T01:01:19.981Z,8.33
2019-02-06T01:03:52.620Z,9.73
2019-02-06T01:06:21.851Z,7.55
2019-02-06T01:08:52.370Z,8.25
2019-02-06T01:11:21.531Z,8.25
2019-02-06T01:13:50.872Z,8.25
2019-02-06T01:16:20.027Z,7.85
2019-02-06T01:18:49.059Z,8.75
2019-02-06T01:21:18.297Z,7.35
2019-02-06T01:23:47.537Z,6.65
2019-02-06T01:26:16.684Z,8.18
2019-02-06T01:28:45.607Z,8.10
2019-02-06T01:31:22.067Z,7.87
2019-02-06T01:33:51.169Z,7.20
2019-02-06T01:36:20.248Z,6.90
2019-02-06T01:38:49.353Z,6.92
2019-02-06T01:41:18.538Z,7.00
2019-02-06T01:43:47.732Z,8.00
2019-02-06T01:46:17.034Z,7.87
2019-02-06T01:48:46.103Z,8.35
2019-02-06T01:51:15.171Z,6.85
2019-02-06T01:53:44.610Z,7.47
2019-02-06T01:56:19.168Z,8.33
2019-02-06T01:58:48.353Z,7.50
2019-02-06T02:01:17.378Z,7.20
2019-02-06T02:03:46.370Z,6.80
2019-02-06T02:06:15.425Z,6.65
2019-02-06T02:08:48.329Z,7.60
2019-02-06T02:11:17.412Z,7.65
2019-02-06T02:13:46.467Z,6.15
2019-02-06T02:16:15.469Z,7.13
2019-02-06T02:18:44.596Z,8.35
2019-02-06T02:21:13.437Z,6.80
2019-02-06T02:23:42.608Z,7.37
2019-02-06T02:26:11.579Z,6.67
2019-02-06T02:28:40.543Z,6.90
2019-02-06T02:31:09.494Z,8.10
2019-02-06T02:33:38.545Z,6.75
2019-02-06T02:36:15.794Z,6.47
2019-02-06T02:38:37.959Z,6.92
2019-02-06T02:41:06.914Z,6.12
2019-02-06T02:43:35.949Z,6.87
2019-02-06T02:46:05.181Z,7.37
2019-02-06T02:48:34.262Z,6.83
2019-02-06T02:51:03.237Z,6.50
2019-02-06T02:53:32.590Z,6.90
2019-02-06T02:56:01.913Z,7.05
2019-02-06T02:58:31.022Z,6.50
2019-02-06T03:01:27.896Z,8.10
2019-02-06T03:04:07.509Z,7.70
2019-02-06T03:06:36.598Z,7.00
2019-02-06T03:09:12.742Z,7.20
2019-02-06T03:11:41.898Z,6.40
2019-02-06T03:14:11.353Z,7.00
2019-02-06T03:16:40.694Z,8.28
2019-02-06T03:19:09.980Z,7.60
2019-02-06T03:21:39.292Z,8.53
2019-02-06T03:24:08.307Z,8.63
2019-02-06T03:26:37.405Z,8.70
2019-02-06T03:29:06.702Z,7.53
2019-02-06T03:31:35.653Z,8.00
2019-02-06T03:34:05.163Z,8.73
2019-02-06T03:36:40.377Z,8.93
2019-02-06T03:39:08.550Z,8.70
2019-02-06T03:41:37.603Z,8.93
2019-02-06T03:44:07.245Z,9.70
2019-02-06T03:46:36.407Z,8.40
2019-02-06T03:49:05.587Z,7.75
2019-02-06T03:51:34.868Z,9.03
2019-02-06T03:54:04.392Z,8.25
2019-02-06T03:56:33.378Z,8.68
2019-02-06T03:59:02.654Z,9.35
2019-02-06T04:01:31.709Z,8.58
2019-02-06T04:04:00.779Z,9.40
2019-02-06T04:06:29.852Z,8.80
2019-02-06T04:08:58.700Z,9.58
2019-02-06T04:11:27.794Z,10.25
2019-02-06T04:13:56.800Z,9.90
2019-02-06T04:16:26.030Z,9.33
2019-02-06T04:18:55.069Z,11.48
2019-02-06T04:21:24.167Z,9.57
2019-02-06T04:23:53.220Z,10.20
2019-02-06T04:26:22.098Z,11.10
2019-02-06T04:28:51.248Z,10.23
2019-02-06T04:31:20.719Z,11.35
2019-02-06T04:33:49.771Z,10.05
2019-02-06T04:36:18.675Z,11.25
2019-02-06T04:38:47.576Z,10.17
2019-02-06T04:41:16.713Z,10.75
2019-02-06T04:43:45.635Z,12.23
2019-02-06T04:46:15.005Z,11.55
2019-02-06T04:48:43.906Z,11.08
2019-02-06T04:51:13.093Z,11.57
2019-02-06T04:53:41.988Z,11.75
2019-02-06T04:56:10.985Z,11.12
2019-02-06T04:58:39.980Z,12.37
2019-02-06T05:01:08.947Z,13.10
2019-02-06T05:03:37.953Z,14.13
2019-02-06T05:06:06.951Z,12.10
2019-02-06T05:08:35.997Z,12.98
2019-02-06T05:11:05.200Z,13.20
2019-02-06T05:13:34.161Z,13.25
2019-02-06T05:16:03.228Z,14.47
2019-02-06T05:18:35.792Z,13.40
2019-02-06T05:21:04.873Z,13.15
2019-02-06T05:23:34.062Z,12.88
2019-02-06T05:26:03.108Z,14.33
2019-02-06T05:28:32.345Z,13.13
2019-02-06T05:31:01.258Z,12.95
2019-02-06T05:33:30.495Z,14.45
2019-02-06T05:35:59.468Z,15.78
2019-02-06T05:38:28.782Z,14.03
2019-02-06T05:40:57.689Z,14.38
2019-02-06T05:43:26.840Z,14.55
2019-02-06T05:45:56.011Z,14.10
2019-02-06T05:48:24.890Z,15.25
2019-02-06T05:50:53.918Z,15.05
2019-02-06T05:53:22.804Z,15.70
2019-02-06T05:55:51.874Z,15.80
2019-02-06T05:58:20.840Z,15.98
2019-02-06T06:00:50.359Z,15.58
2019-02-06T06:03:19.174Z,16.62
2019-02-06T06:05:48.367Z,16.62
2019-02-06T06:08:17.450Z,16.62
2019-02-06T06:10:46.315Z,16.20
2019-02-06T06:13:18.435Z,17.57
2019-02-06T06:15:45.865Z,15.93
2019-02-06T06:18:14.895Z,17.70
2019-02-06T06:20:43.825Z,15.20
2019-02-06T06:23:12.895Z,16.87
2019-02-06T06:25:41.888Z,17.85
2019-02-06T06:28:10.934Z,17.95
2019-02-06T06:30:39.860Z,17.65
2019-02-06T06:33:08.771Z,15.88
2019-02-06T06:35:37.943Z,18.52
2019-02-06T06:38:07.690Z,20.25
2019-02-06T06:40:36.791Z,18.48
2019-02-06T06:43:05.833Z,17.82
2019-02-06T06:45:34.969Z,17.77
2019-02-06T06:48:03.900Z,16.90
2019-02-06T06:50:33.074Z,19.02
2019-02-06T06:53:02.153Z,18.05
2019-02-06T06:55:31.072Z,18.48
2019-02-06T06:58:00.096Z,18.02
2019-02-06T07:00:30.478Z,18.25
2019-02-06T07:02:59.545Z,18.77
2019-02-06T07:05:28.684Z,19.70
2019-02-06T07:08:08.845Z,19.12
2019-02-06T07:10:28.985Z,20.85
2019-02-06T07:12:57.987Z,20.88
2019-02-06T07:15:29.138Z,20.77
2019-02-06T07:17:58.424Z,20.27
2019-02-06T07:20:27.317Z,20.45
2019-02-06T07:22:56.284Z,20.55
2019-02-06T07:25:25.339Z,18.82
2019-02-06T07:27:54.411Z,21.23
2019-02-06T07:30:28.974Z,19.50
2019-02-06T07:32:58.205Z,18.92
2019-02-06T07:35:27.302Z,20.60
2019-02-06T07:37:57.043Z,18.73
2019-02-06T07:40:26.473Z,17.10
2019-02-06T07:42:55.440Z,20.57
2019-02-06T07:45:24.555Z,19.48
2019-02-06T07:47:53.591Z,19.15
2019-02-06T07:50:33.492Z,17.87
2019-02-06T07:53:02.460Z,19.25
2019-02-06T07:55:31.452Z,17.60
2019-02-06T07:58:00.511Z,18.55
2019-02-06T08:00:29.540Z,21.10
2019-02-06T08:02:58.709Z,18.77
2019-02-06T08:05:27.733Z,18.62
2019-02-06T08:07:57.059Z,17.70
2019-02-06T08:10:30.739Z,17.85
2019-02-06T08:12:59.756Z,18.48
2019-02-06T08:15:29.055Z,21.40
2019-02-06T08:17:58.119Z,18.30
2019-02-06T08:20:27.383Z,19.60
2019-02-06T08:22:56.624Z,17.73
2019-02-06T08:25:25.937Z,19.15
2019-02-06T08:27:54.882Z,17.98
2019-02-06T08:30:38.166Z,17.95
2019-02-06T08:33:07.196Z,19.80
2019-02-06T08:35:36.498Z,18.45
2019-02-06T08:38:05.715Z,18.30
2019-02-06T08:40:34.791Z,17.80
2019-02-06T08:43:03.832Z,19.05
2019-02-06T08:45:32.815Z,17.27
2019-02-06T08:48:01.729Z,18.92
2019-02-06T08:50:30.890Z,19.85
2019-02-06T08:52:59.796Z,17.10
2019-02-06T08:55:30.023Z,18.17
2019-02-06T08:57:59.373Z,16.40
2019-02-06T09:00:30.347Z,18.37
2019-02-06T09:02:59.478Z,18.57
2019-02-06T09:05:29.001Z,18.90
2019-02-06T09:07:58.160Z,17.20
2019-02-06T09:10:27.430Z,16.60
2019-02-06T09:12:56.514Z,17.50
2019-02-06T09:15:27.380Z,17.70
2019-02-06T09:17:56.356Z,16.40
2019-02-06T09:20:26.045Z,17.25
2019-02-06T09:22:55.209Z,18.07
2019-02-06T09:25:24.593Z,15.93
2019-02-06T09:27:53.643Z,15.48
2019-02-06T09:30:27.250Z,16.40
2019-02-06T09:32:56.949Z,16.00
2019-02-06T09:35:26.296Z,14.93
2019-02-06T09:37:55.435Z,14.87
2019-02-06T09:40:27.417Z,14.23
2019-02-06T09:42:56.428Z,15.13
2019-02-06T09:45:25.685Z,15.08
2019-02-06T09:47:54.745Z,15.32
2019-02-06T09:50:32.569Z,15.90
2019-02-06T09:53:01.503Z,13.80
2019-02-06T09:55:30.657Z,14.20
2019-02-06T09:57:59.978Z,16.27
2019-02-06T10:00:31.317Z,14.93
2019-02-06T10:03:00.400Z,14.90
2019-02-06T10:05:29.663Z,14.93
2019-02-06T10:07:59.108Z,13.43
2019-02-06T10:10:28.090Z,12.40
2019-02-06T10:12:57.642Z,13.53
2019-02-06T10:15:31.451Z,13.97
2019-02-06T10:18:01.893Z,12.33
2019-02-06T10:20:33.363Z,11.60
2019-02-06T10:23:03.996Z,13.80
2019-02-06T10:25:33.085Z,12.67
2019-02-06T10:28:02.313Z,12.47
2019-02-06T10:30:42.647Z,13.70
2019-02-06T10:33:11.782Z,14.10
2019-02-06T10:35:40.640Z,14.33
2019-02-06T10:38:11.479Z,14.50
2019-02-06T10:40:40.534Z,12.40
2019-02-06T10:43:09.984Z,13.20
2019-02-06T10:45:39.307Z,15.07
2019-02-06T10:48:08.501Z,13.73
2019-02-06T10:50:40.214Z,13.70
2019-02-06T10:53:09.955Z,13.20
2019-02-06T10:55:38.807Z,11.97
2019-02-06T10:58:08.057Z,13.27
2019-02-06T11:00:40.154Z,13.07
2019-02-06T11:03:09.220Z,11.73
2019-02-06T11:05:38.308Z,11.90
2019-02-06T11:08:07.466Z,11.40
2019-02-06T11:10:36.477Z,10.87
2019-02-06T11:13:06.555Z,11.20
2019-02-06T11:15:35.817Z,10.27
2019-02-06T11:18:05.280Z,12.57
2019-02-06T11:20:34.883Z,10.20
2019-02-06T11:23:04.181Z,9.63
2019-02-06T11:25:33.264Z,8.23
2019-02-06T11:28:02.389Z,9.17
2019-02-06T11:30:32.372Z,8.93
2019-02-06T11:33:01.366Z,8.30
2019-02-06T11:35:30.236Z,8.70
2019-02-06T11:37:59.088Z,9.80
2019-02-06T11:40:27.999Z,10.27
2019-02-06T11:42:57.058Z,9.97
2019-02-06T11:45:28.541Z,8.97
2019-02-06T11:47:57.683Z,8.80
2019-02-06T11:50:31.908Z,8.37
2019-02-06T11:53:00.892Z,10.00
2019-02-06T11:55:29.817Z,8.80
2019-02-06T11:57:58.733Z,10.17
2019-02-06T12:00:35.065Z,10.00
2019-02-06T12:03:04.231Z,9.00
2019-02-06T12:05:33.021Z,8.97
2019-02-06T12:08:01.997Z,8.97
2019-02-06T12:10:30.879Z,9.20
2019-02-06T12:12:59.749Z,9.30
2019-02-06T12:15:28.830Z,9.60
2019-02-06T12:17:57.777Z,7.97
2019-02-06T12:20:26.848Z,8.20
2019-02-06T12:22:55.724Z,9.60
2019-02-06T12:25:24.716Z,8.00
2019-02-06T12:27:53.913Z,11.03
2019-02-06T12:30:25.846Z,9.37
2019-02-06T12:32:54.826Z,7.80
2019-02-06T12:35:23.984Z,7.33
2019-02-06T12:37:52.839Z,8.07
2019-02-06T12:40:22.621Z,7.50
2019-02-06T12:42:51.629Z,9.17
2019-02-06T12:45:20.707Z,8.00
2019-02-06T12:47:49.841Z,7.50
2019-02-06T12:50:19.433Z,7.93
2019-02-06T12:52:48.578Z,8.90
2019-02-06T12:55:29.125Z,7.40
2019-02-06T12:57:58.051Z,7.53
2019-02-06T13:00:28.886Z,7.73
2019-02-06T13:03:00.003Z,7.37
2019-02-06T13:05:29.081Z,8.47
2019-02-06T13:07:58.083Z,9.03
2019-02-06T13:10:33.962Z,7.60
2019-02-06T13:12:57.582Z,9.17
2019-02-06T13:15:26.538Z,7.37
2019-02-06T13:17:55.802Z,8.73
2019-02-06T13:20:27.415Z,8.80
2019-02-06T13:22:56.881Z,8.50
2019-02-06T13:25:28.643Z,7.57
2019-02-06T13:28:00.891Z,8.60
2019-02-06T13:30:56.627Z,7.73
2019-02-06T13:33:26.098Z,7.30
2019-02-06T13:35:55.063Z,8.03
2019-02-06T13:38:26.951Z,8.70
2019-02-06T13:40:56.005Z,10.53
2019-02-06T13:43:25.292Z,8.27
2019-02-06T13:45:54.186Z,7.80
2019-02-06T13:48:23.008Z,6.93
2019-02-06T13:50:52.123Z,7.27
2019-02-06T13:53:21.533Z,7.63
2019-02-06T13:55:51.182Z,6.80
2019-02-06T13:58:23.686Z,6.37
2019-02-06T14:00:52.676Z,8.20
2019-02-06T14:03:21.710Z,7.40
2019-02-06T14:05:53.392Z,8.37
2019-02-06T14:08:22.785Z,7.17
2019-02-06T14:11:00.147Z,8.00
2019-02-06T14:13:22.581Z,7.93
2019-02-06T14:15:51.516Z,9.00
2019-02-06T14:18:20.427Z,7.70
2019-02-06T14:20:52.187Z,7.23
2019-02-06T14:23:33.741Z,8.63
2019-02-06T14:26:35.618Z,7.43
2019-02-06T14:29:22.251Z,8.23
2019-02-06T14:32:03.400Z,7.93
2019-02-06T14:34:50.416Z,10.50
2019-02-06T14:38:06.649Z,9.10
2019-02-06T14:41:17.500Z,9.93
2019-02-06T14:44:10.086Z,9.27
2019-02-06T14:47:01.651Z,8.67
2019-02-06T14:49:55.959Z,10.40
2019-02-06T14:52:46.562Z,12.70
2019-02-06T14:55:29.804Z,8.80
2019-02-06T14:58:28.479Z,8.93
2019-02-06T15:01:12.132Z,7.73
2019-02-06T15:03:59.108Z,8.00
2019-02-06T15:07:10.121Z,9.07
2019-02-06T15:10:08.774Z,8.60
2019-02-06T15:13:16.292Z,9.57
2019-02-06T15:16:21.127Z,8.70
2019-02-06T15:19:17.439Z,8.90
2019-02-06T15:22:22.205Z,9.73
2019-02-06T15:25:03.281Z,8.70
2019-02-06T15:28:10.096Z,8.30
2019-02-06T15:31:24.806Z,8.97
2019-02-06T15:34:21.456Z,7.87
2019-02-06T15:37:22.747Z,11.00
2019-02-06T15:40:23.489Z,8.73
2019-02-06T15:43:17.298Z,9.03
2019-02-06T15:46:21.624Z,9.33
2019-02-06T15:49:15.618Z,8.78
2019-02-06T15:52:15.455Z,7.80
2019-02-06T15:55:20.197Z,8.73
2019-02-06T15:58:43.398Z,7.90
2019-02-06T16:01:41.274Z,8.28
2019-02-06T16:05:10.674Z,7.93
2019-02-06T16:08:03.932Z,8.73
2019-02-06T16:11:00.040Z,8.45
2019-02-06T16:14:01.941Z,7.75
2019-02-06T16:17:10.101Z,8.50
2019-02-06T16:20:05.218Z,8.90
2019-02-06T16:23:08.591Z,8.30
2019-02-06T16:26:14.005Z,8.73
2019-02-06T16:29:30.229Z,9.18
2019-02-06T16:32:24.955Z,9.08
2019-02-06T16:35:21.714Z,9.78
2019-02-06T16:38:28.262Z,9.65
2019-02-06T16:41:35.151Z,10.33
2019-02-06T16:44:32.559Z,9.15
2019-02-06T16:47:32.762Z,9.55
2019-02-06T16:50:24.421Z,9.85
2019-02-06T16:53:36.831Z,10.30
2019-02-06T16:56:26.616Z,11.68
2019-02-06T16:59:32.862Z,10.03
2019-02-06T17:02:42.932Z,11.48
2019-02-06T17:05:48.996Z,9.90
2019-02-06T17:08:41.920Z,12.07
2019-02-06T17:11:30.740Z,11.20
2019-02-06T17:14:52.953Z,9.60
2019-02-06T17:18:02.645Z,11.80
2019-02-06T17:21:02.466Z,11.00
2019-02-06T17:24:21.761Z,11.20
2019-02-06T17:27:13.793Z,11.90
2019-02-06T17:30:07.268Z,11.70
2019-02-06T17:33:11.817Z,12.95
2019-02-06T17:36:07.077Z,12.05
2019-02-06T17:39:23.592Z,10.95
2019-02-06T17:41:56.389Z,10.80
2019-02-06T17:44:52.028Z,10.80
2019-02-06T17:47:34.753Z,11.95
2019-02-06T17:50:38.461Z,13.03
2019-02-06T17:53:22.668Z,11.95
2019-02-06T17:55:51.631Z,12.00
2019-02-06T17:58:20.553Z,12.63
2019-02-06T18:01:16.310Z,13.13
2019-02-06T18:03:59.208Z,10.97
2019-02-06T18:06:28.014Z,11.10
2019-02-06T18:08:57.300Z,13.43
2019-02-06T18:11:26.202Z,12.30
2019-02-06T18:13:55.164Z,10.37
2019-02-06T18:16:25.150Z,10.97
2019-02-06T18:18:54.152Z,12.43
2019-02-06T18:21:23.331Z,11.30
2019-02-06T18:23:53.070Z,10.47
2019-02-06T18:26:21.991Z,11.10
2019-02-06T18:28:51.330Z,13.50
2019-02-06T18:31:20.611Z,11.87
2019-02-06T18:33:49.989Z,12.63
2019-02-06T18:36:19.021Z,12.30
2019-02-06T18:38:51.802Z,13.77
2019-02-06T18:41:27.048Z,12.93
2019-02-06T18:43:56.529Z,12.97
2019-02-06T18:46:28.495Z,12.63
2019-02-06T18:48:57.521Z,13.13
2019-02-06T18:51:26.613Z,14.30
2019-02-06T18:53:55.572Z,12.70
2019-02-06T18:56:25.168Z,10.63
2019-02-06T18:58:54.612Z,11.77
2019-02-06T19:01:24.368Z,14.17
2019-02-06T19:03:53.756Z,16.40
2019-02-06T19:06:22.703Z,17.63
2019-02-06T19:08:52.186Z,17.17
2019-02-06T19:11:40.755Z,14.03
2019-02-06T19:14:11.163Z,11.77
2019-02-06T19:16:40.341Z,12.23
2019-02-06T19:19:09.359Z,12.30
2019-02-06T19:21:38.407Z,15.37
2019-02-06T19:24:07.531Z,13.20
2019-02-06T19:26:36.528Z,15.43
2019-02-06T19:29:07.273Z,24.17
2019-02-06T19:31:36.146Z,17.20
2019-02-06T19:34:07.764Z,15.77
2019-02-06T19:36:43.728Z,14.10
2019-02-06T19:39:13.159Z,12.33
2019-02-06T19:41:42.522Z,12.93
2019-02-06T19:44:11.618Z,15.27
2019-02-06T19:46:40.632Z,19.27
2019-02-06T19:49:10.141Z,15.53
2019-02-06T19:51:39.251Z,15.60
2019-02-06T19:54:10.860Z,14.00
2019-02-06T19:56:40.043Z,13.03
2019-02-06T19:59:09.175Z,11.80
2019-02-06T20:01:38.333Z,11.13
2019-02-06T20:04:07.512Z,11.30
2019-02-06T20:06:36.794Z,15.03
2019-02-06T20:09:15.660Z,12.80
2019-02-06T20:11:50.206Z,11.00
2019-02-06T20:14:21.228Z,11.12
2019-02-06T20:16:50.355Z,10.40
2019-02-06T20:19:20.835Z,12.00
2019-02-06T20:21:50.110Z,12.00
2019-02-06T20:24:21.771Z,13.87
2019-02-06T20:26:50.626Z,14.53
2019-02-06T20:29:20.862Z,13.28
2019-02-06T20:31:50.229Z,12.18
2019-02-06T20:34:19.653Z,11.25
2019-02-06T20:36:49.174Z,11.30
2019-02-06T20:39:18.839Z,10.45
2019-02-06T20:41:47.900Z,10.65
2019-02-06T20:44:17.384Z,10.00
2019-02-06T20:46:47.839Z,9.93
2019-02-06T20:49:16.697Z,9.73
2019-02-06T20:51:45.618Z,9.80
2019-02-06T20:54:14.608Z,11.00
2019-02-06T20:56:46.340Z,11.08
2019-02-06T20:59:15.488Z,10.88
2019-02-06T21:01:47.609Z,11.20
2019-02-06T21:04:16.602Z,9.63
2019-02-06T21:06:45.955Z,10.05
2019-02-06T21:09:17.614Z,9.53
2019-02-06T21:11:54.106Z,10.03
2019-02-06T21:14:23.234Z,9.83
2019-02-06T21:16:52.322Z,9.20
2019-02-06T21:19:21.520Z,8.93
2019-02-06T21:21:51.485Z,9.20
2019-02-06T21:24:20.850Z,9.40
2019-02-06T21:26:49.804Z,8.05
2019-02-06T21:29:18.886Z,9.25
2019-02-06T21:31:47.950Z,9.80
2019-02-06T21:34:17.101Z,10.85
2019-02-06T21:36:45.997Z,11.55
2019-02-06T21:39:15.130Z,10.50
2019-02-06T21:41:46.611Z,10.37
2019-02-06T21:44:18.455Z,8.08
2019-02-06T21:46:47.977Z,10.23
2019-02-06T21:49:16.999Z,10.63
2019-02-06T21:51:46.335Z,10.32
2019-02-06T21:54:15.323Z,10.45
2019-02-06T21:56:44.472Z,8.98
2019-02-06T21:59:15.485Z,9.85
2019-02-06T22:01:44.522Z,10.30
2019-02-06T22:04:13.481Z,8.88
2019-02-06T22:06:42.715Z,8.08
2019-02-06T22:09:12.292Z,8.48
2019-02-06T22:11:41.429Z,9.38
2019-02-06T22:14:12.686Z,9.25
2019-02-06T22:16:42.152Z,8.40
2019-02-06T22:19:11.244Z,9.83
2019-02-06T22:21:40.503Z,8.37
2019-02-06T22:24:09.563Z,8.90
2019-02-06T22:26:38.531Z,10.30
2019-02-06T22:29:07.563Z,8.85
2019-02-06T22:31:36.848Z,8.65
2019-02-06T22:34:06.000Z,10.10
2019-02-06T22:36:35.417Z,9.13
2019-02-06T22:39:09.963Z,9.25
2019-02-06T22:41:38.963Z,9.10
2019-02-06T22:44:08.015Z,9.25
2019-02-06T22:46:39.412Z,10.03
2019-02-06T22:49:09.083Z,8.18
2019-02-06T22:51:38.782Z,8.53
2019-02-06T22:54:07.786Z,9.98
2019-02-06T22:56:36.815Z,11.03
2019-02-06T22:59:05.941Z,9.75
2019-02-06T23:01:39.753Z,9.30
2019-02-06T23:04:08.861Z,10.85
2019-02-06T23:06:39.447Z,10.32
2019-02-06T23:09:09.154Z,11.75
2019-02-06T23:11:38.545Z,9.95
2019-02-06T23:14:17.156Z,9.03
2019-02-06T23:16:41.553Z,8.43
2019-02-06T23:19:11.714Z,8.27
2019-02-06T23:21:40.823Z,8.35
2019-02-06T23:24:17.020Z,8.35
2019-02-06T23:26:46.022Z,8.30
2019-02-06T23:29:17.907Z,7.93
2019-02-06T23:31:47.243Z,10.38
2019-02-06T23:34:16.855Z,8.57
2019-02-06T23:36:46.491Z,9.00
2019-02-06T23:39:19.345Z,8.43
2019-02-06T23:42:11.442Z,8.20
2019-02-06T23:44:43.733Z,7.80
2019-02-06T23:47:13.323Z,8.80
2019-02-06T23:49:42.337Z,8.15
2019-02-06T23:52:16.152Z,8.83
2019-02-06T23:54:50.677Z,8.90
2019-02-06T23:57:27.666Z,9.20
2019-02-06T23:59:52.494Z,8.20
